Time;durP1;ratioP1;P1;durP2;ratioP2;P2;SDS_P1;SDS_P2;PMS_P1;PMS_P2;Temp;Humidity;BMP_temperature;BMP_pressure;BME280_temperature;BME280_humidity;BME280_pressure;Samples;Min_cycle;Max_cycle;Signal;HPM_P1;HPM_P2
2022/09/10 00:01:17;;;;;;;0.20;0.20;;;13.30;99.90;;;;;;5035270;28;20545;-76
2022/09/10 00:03:43;;;;;;;2.90;0.63;;;13.30;99.90;;;;;;5018081;28;20037;-76
2022/09/10 00:06:10;;;;;;;0.00;0.00;;;13.20;99.90;;;;;;5036186;28;20041;-76
2022/09/10 00:08:36;;;;;;;0.75;0.32;;;13.20;99.90;;;;;;5035646;28;20049;-77
2022/09/10 00:11:08;;;;;;;0.20;0.20;;;13.20;99.90;;;;;;5035441;28;20045;-76
2022/09/10 00:13:38;;;;;;;1.35;1.00;;;13.30;99.90;;;;;;5035812;28;20043;-76
2022/09/10 00:16:06;;;;;;;1.15;0.52;;;13.30;99.90;;;;;;5035680;28;20080;-77
2022/09/10 00:18:33;;;;;;;1.25;0.82;;;13.40;99.90;;;;;;5018536;28;20408;-77
2022/09/10 00:21:00;;;;;;;0.50;0.50;;;13.50;99.90;;;;;;5018374;28;20407;-75
2022/09/10 00:23:28;;;;;;;0.88;0.52;;;13.40;99.90;;;;;;5036158;28;20048;-77
2022/09/10 00:25:54;;;;;;;1.05;0.93;;;13.40;99.90;;;;;;5018566;28;20052;-76
2022/09/10 00:28:21;;;;;;;1.58;1.40;;;13.50;99.90;;;;;;5036251;28;20041;-76
2022/09/10 00:30:50;;;;;;;0.47;0.47;;;13.50;99.90;;;;;;5036283;28;20038;-75
2022/09/10 00:33:17;;;;;;;1.85;1.27;;;13.50;99.90;;;;;;5018429;28;20045;-76
2022/09/10 00:35:43;;;;;;;0.82;0.65;;;13.60;99.90;;;;;;5036002;28;20048;-75
2022/09/10 00:38:10;;;;;;;1.35;0.98;;;13.60;99.90;;;;;;5036814;28;20037;-77
2022/09/10 00:40:37;;;;;;;4.43;1.63;;;13.60;99.90;;;;;;5037134;28;20049;-76
2022/09/10 00:43:07;;;;;;;0.50;0.40;;;13.60;99.90;;;;;;5019039;28;20503;-75
2022/09/10 00:45:33;;;;;;;2.78;1.60;;;13.70;99.90;;;;;;5019045;28;20057;-77
2022/09/10 00:48:04;;;;;;;0.55;0.40;;;13.70;99.90;;;;;;5036491;28;20048;-77
2022/09/10 00:50:33;;;;;;;0.80;0.68;;;13.80;99.90;;;;;;5036554;28;20042;-78
2022/09/10 00:53:05;;;;;;;1.45;0.57;;;13.80;99.90;;;;;;5036378;28;20077;-76
2022/09/10 00:55:33;;;;;;;0.77;0.60;;;13.70;99.90;;;;;;5038858;28;20038;-76
2022/09/10 00:58:02;;;;;;;1.17;0.85;;;13.70;99.90;;;;;;5040114;28;20061;-76
2022/09/10 01:00:30;;;;;;;1.48;1.15;;;14.30;99.90;;;;;;5022866;28;20085;-75
2022/09/10 01:02:55;;;;;;;1.35;1.02;;;13.80;99.90;;;;;;5040673;28;20045;-77
2022/09/10 01:05:22;;;;;;;1.42;1.13;;;13.80;99.90;;;;;;5041064;28;20075;-76
2022/09/10 01:07:47;;;;;;;0.73;0.73;;;13.80;99.90;;;;;;5040025;28;20048;-76
2022/09/10 01:10:22;;;;;;;0.40;0.35;;;13.80;99.90;;;;;;5040114;28;20128;-76
2022/09/10 01:13:06;;;;;;;0.40;0.17;;;13.80;99.90;;;;;;5040028;28;20037;-76
2022/09/10 01:15:49;;;;;;;2.42;1.60;;;13.80;99.90;;;;;;5039851;28;20052;-76
2022/09/10 01:18:38;;;;;;;0.65;0.47;;;13.80;99.90;;;;;;5022457;28;20057;-76
2022/09/10 01:21:21;;;;;;;0.63;0.63;;;13.90;99.90;;;;;;5039932;28;20088;-75
2022/09/10 01:23:56;;;;;;;2.08;1.02;;;13.90;99.90;;;;;;5040390;28;20049;-76
2022/09/10 01:26:48;;;;;;;0.50;0.40;;;14.00;99.90;;;;;;5022396;28;20129;-77
2022/09/10 01:29:37;;;;;;;1.17;1.05;;;14.00;99.90;;;;;;5039478;28;20046;-77
2022/09/10 01:32:10;;;;;;;1.98;0.95;;;14.00;99.90;;;;;;5039296;28;20050;-76
2022/09/10 01:34:58;;;;;;;5.57;1.15;;;14.00;99.90;;;;;;5039356;28;20049;-75
2022/09/10 01:37:33;;;;;;;2.22;1.60;;;14.00;99.90;;;;;;5037506;28;20128;-76
2022/09/10 01:40:00;;;;;;;1.73;0.55;;;14.00;99.90;;;;;;5037726;28;20110;-77
2022/09/10 01:42:27;;;;;;;2.40;1.30;;;14.00;99.90;;;;;;5038058;28;20400;-76
2022/09/10 01:44:56;;;;;;;0.90;0.85;;;14.10;99.90;;;;;;5038169;28;20046;-77
2022/09/10 01:47:36;;;;;;;3.35;0.73;;;14.10;99.90;;;;;;5038383;28;20045;-76
2022/09/10 01:50:25;;;;;;;0.80;0.73;;;14.10;99.90;;;;;;5037617;28;20057;-77
2022/09/10 01:53:09;;;;;;;1.55;1.30;;;14.10;99.90;;;;;;5037808;28;20052;-76
2022/09/10 01:58:41;;;;;;;1.42;1.25;;;14.10;99.90;;;;;;5085221;22;20053;-72
2022/09/10 02:01:13;;;;;;;0.13;0.10;;;14.10;99.90;;;;;;5045129;28;20046;-72
2022/09/10 02:03:43;;;;;;;2.72;1.58;;;14.10;99.90;;;;;;5063772;28;20108;-72
2022/09/10 02:06:13;;;;;;;1.40;0.75;;;14.10;99.90;;;;;;5059699;28;20053;-73
2022/09/10 02:08:41;;;;;;;0.65;0.65;;;14.10;99.90;;;;;;5064354;28;20052;-72
2022/09/10 02:11:11;;;;;;;0.80;0.65;;;14.20;99.90;;;;;;5063374;28;20414;-72
2022/09/10 02:13:37;;;;;;;2.30;1.23;;;14.10;99.90;;;;;;5046193;28;20131;-72
2022/09/10 02:16:07;;;;;;;3.40;1.33;;;14.20;99.90;;;;;;5044963;28;20056;-72
2022/09/10 02:18:36;;;;;;;0.90;0.70;;;14.10;99.90;;;;;;5045389;28;20041;-72
2022/09/10 02:21:05;;;;;;;1.85;1.23;;;14.20;99.90;;;;;;5044969;28;20049;-72
2022/09/10 02:23:37;;;;;;;1.63;0.85;;;14.20;99.90;;;;;;5043440;28;20037;-72
2022/09/10 02:26:02;;;;;;;4.88;1.00;;;14.20;99.90;;;;;;5024505;28;20049;-72
2022/09/10 02:28:29;;;;;;;1.10;1.00;;;14.20;99.90;;;;;;5042015;28;20097;-72
2022/09/10 02:30:54;;;;;;;4.00;2.15;;;14.20;99.90;;;;;;5058684;28;20149;-74
2022/09/10 02:33:20;;;;;;;2.13;0.73;;;14.20;99.90;;;;;;5061772;28;20073;-72
2022/09/10 02:35:47;;;;;;;0.52;0.45;;;14.20;99.90;;;;;;5064124;28;20076;-71
2022/09/10 02:38:12;;;;;;;5.13;1.75;;;14.20;99.90;;;;;;5062923;28;20084;-72
2022/09/10 02:40:38;;;;;;;1.55;1.10;;;14.20;99.90;;;;;;5064185;28;20037;-71
2022/09/10 02:43:04;;;;;;;0.93;0.93;;;14.20;99.90;;;;;;5063774;28;20045;-72
2022/09/10 02:45:30;;;;;;;1.48;1.30;;;14.20;99.90;;;;;;5063387;28;20064;-72
2022/09/10 02:47:56;;;;;;;2.15;1.48;;;14.20;99.90;;;;;;5063668;28;20048;-72
2022/09/10 02:50:23;;;;;;;4.40;1.25;;;14.30;99.90;;;;;;5061899;28;20037;-73
2022/09/10 02:52:52;;;;;;;3.88;1.83;;;14.30;99.90;;;;;;5064277;28;20052;-72
2022/09/10 02:55:18;;;;;;;4.32;1.08;;;14.30;99.90;;;;;;5065157;28;20040;-72
2022/09/10 02:57:44;;;;;;;4.95;2.42;;;14.50;99.90;;;;;;5064017;28;20049;-71
2022/09/10 03:00:10;;;;;;;1.80;0.93;;;14.20;99.90;;;;;;5064493;28;20072;-72
2022/09/10 03:02:36;;;;;;;1.90;1.05;;;14.30;99.90;;;;;;5064705;28;20129;-72
2022/09/10 03:05:03;;;;;;;3.15;1.67;;;14.30;99.90;;;;;;5059994;28;20049;-73
2022/09/10 03:07:30;;;;;;;4.38;2.17;;;14.40;99.90;;;;;;5064524;28;20072;-72
2022/09/10 03:09:55;;;;;;;4.18;2.83;;;14.30;99.90;;;;;;5062954;28;20045;-72
2022/09/10 03:12:21;;;;;;;3.13;2.17;;;14.30;99.90;;;;;;5063346;28;20411;-72
2022/09/10 03:14:47;;;;;;;0.65;0.65;;;14.30;99.90;;;;;;5064740;28;20521;-73
2022/09/10 03:17:15;;;;;;;4.95;2.47;;;14.30;99.90;;;;;;5062211;28;20080;-73
2022/09/10 03:19:41;;;;;;;12.00;3.58;;;14.30;99.90;;;;;;5062276;28;20091;-72
2022/09/10 03:22:06;;;;;;;5.65;2.97;;;14.30;99.90;;;;;;5060802;28;20041;-72
2022/09/10 03:24:32;;;;;;;7.28;2.03;;;14.30;99.90;;;;;;5063394;28;20132;-72
2022/09/10 03:27:01;;;;;;;1.48;1.08;;;14.30;99.90;;;;;;5063511;28;20041;-72
2022/09/10 03:29:28;;;;;;;0.63;0.63;;;14.30;99.90;;;;;;5062596;28;20052;-73
2022/09/10 03:31:54;;;;;;;4.05;3.15;;;14.30;99.90;;;;;;5062446;28;20095;-72
2022/09/10 03:34:20;;;;;;;2.17;1.80;;;14.30;99.90;;;;;;5061689;28;20045;-72
2022/09/10 03:36:46;;;;;;;1.70;0.88;;;14.30;99.90;;;;;;5061295;28;20071;-72
2022/09/10 03:39:13;;;;;;;3.85;1.98;;;14.20;99.90;;;;;;5060605;28;20037;-72
2022/09/10 03:41:39;;;;;;;6.10;2.63;;;14.20;99.90;;;;;;5061029;28;20818;-72
2022/09/10 03:44:05;;;;;;;2.05;1.35;;;14.20;99.90;;;;;;5061741;28;20048;-72
2022/09/10 03:46:33;;;;;;;1.98;1.77;;;14.20;99.90;;;;;;5061515;28;20096;-73
2022/09/10 03:49:02;;;;;;;4.13;1.75;;;14.30;99.90;;;;;;5063931;28;20037;-72
2022/09/10 03:51:28;;;;;;;2.22;1.60;;;14.30;99.90;;;;;;5063440;28;20037;-71
2022/09/10 03:53:54;;;;;;;3.83;1.90;;;14.30;99.90;;;;;;5045319;28;20068;-72
2022/09/10 03:56:19;;;;;;;2.65;0.98;;;14.30;99.90;;;;;;5062205;28;20070;-73
2022/09/10 03:58:47;;;;;;;2.72;2.35;;;14.40;99.90;;;;;;5044237;28;20114;-72
2022/09/10 04:01:14;;;;;;;1.65;1.52;;;14.30;99.90;;;;;;5061154;28;20048;-72
2022/09/10 04:03:41;;;;;;;2.00;1.05;;;14.30;99.90;;;;;;5061116;28;20051;-72
2022/09/10 04:06:10;;;;;;;4.82;1.70;;;14.30;99.90;;;;;;5062387;28;20110;-72
2022/09/10 04:08:36;;;;;;;4.03;1.75;;;14.30;99.90;;;;;;5062666;28;20041;-73
2022/09/10 04:11:03;;;;;;;1.48;0.95;;;14.30;99.90;;;;;;5062720;28;20399;-72
2022/09/10 04:13:30;;;;;;;3.30;2.00;;;14.30;99.90;;;;;;5028609;28;20052;-72
2022/09/10 04:15:56;;;;;;;4.97;2.80;;;14.30;99.90;;;;;;5061094;28;20049;-73
2022/09/10 04:18:22;;;;;;;2.05;1.58;;;14.30;99.90;;;;;;5062482;28;20564;-72
2022/09/10 04:20:48;;;;;;;2.97;2.03;;;14.40;99.90;;;;;;5061722;28;20072;-72
2022/09/10 04:23:15;;;;;;;3.17;1.92;;;14.30;99.90;;;;;;5060690;28;20044;-72
2022/09/10 04:25:42;;;;;;;3.15;1.67;;;14.30;99.90;;;;;;5062346;28;20045;-72
2022/09/10 04:28:08;;;;;;;2.00;1.23;;;14.30;99.90;;;;;;5061755;28;20060;-72
2022/09/10 04:30:34;;;;;;;2.60;1.40;;;14.30;99.90;;;;;;5048615;28;20052;-73
2022/09/10 04:32:59;;;;;;;2.60;1.13;;;14.30;99.90;;;;;;5048406;28;20194;-74
2022/09/10 04:35:25;;;;;;;2.80;1.25;;;14.30;99.90;;;;;;5066808;28;20099;-73
2022/09/10 04:37:51;;;;;;;4.68;1.73;;;14.30;99.90;;;;;;5067381;28;20087;-73
2022/09/10 04:40:16;;;;;;;5.47;2.47;;;14.30;99.90;;;;;;5067068;28;20068;-73
2022/09/10 04:42:45;;;;;;;1.90;1.48;;;14.30;99.90;;;;;;5066179;28;20041;-73
2022/09/10 04:45:11;;;;;;;1.73;1.55;;;14.30;99.90;;;;;;5049877;28;20079;-73
2022/09/10 04:47:37;;;;;;;1.75;1.30;;;14.20;99.90;;;;;;5066329;28;20045;-73
2022/09/10 04:50:05;;;;;;;2.70;1.88;;;14.20;99.90;;;;;;5047605;28;20045;-73
2022/09/10 04:52:32;;;;;;;1.90;1.20;;;14.30;99.90;;;;;;5064960;28;20033;-73
2022/09/10 04:54:58;;;;;;;2.20;1.05;;;14.20;99.90;;;;;;5067503;28;20525;-73
2022/09/10 04:57:24;;;;;;;0.38;0.38;;;14.20;99.90;;;;;;5067126;28;20061;-73
2022/09/10 04:59:52;;;;;;;1.85;1.67;;;14.20;99.90;;;;;;5066350;28;20153;-73
2022/09/10 05:02:18;;;;;;;1.75;1.25;;;14.20;99.90;;;;;;5065669;28;20052;-73
2022/09/10 05:04:44;;;;;;;2.45;1.40;;;14.20;99.90;;;;;;5065376;28;20068;-73
2022/09/10 05:07:09;;;;;;;8.25;2.50;;;14.20;99.90;;;;;;5065270;28;20044;-73
2022/09/10 05:09:35;;;;;;;2.67;2.08;;;14.30;99.90;;;;;;5066455;28;20049;-74
2022/09/10 05:12:01;;;;;;;6.88;2.55;;;14.30;99.90;;;;;;5064698;28;20456;-74
2022/09/10 05:14:28;;;;;;;1.95;1.75;;;14.30;99.90;;;;;;5066104;28;20480;-74
2022/09/10 05:16:54;;;;;;;0.70;0.70;;;14.30;99.90;;;;;;5064955;28;20099;-74
2022/09/10 05:19:20;;;;;;;2.78;1.17;;;14.30;99.90;;;;;;5064298;28;20065;-73
2022/09/10 05:21:47;;;;;;;0.70;0.70;;;14.30;99.90;;;;;;5065105;28;20399;-73
2022/09/10 05:24:13;;;;;;;2.47;1.23;;;14.30;99.90;;;;;;5065355;28;20044;-74
2022/09/10 05:26:40;;;;;;;0.98;0.93;;;14.30;99.90;;;;;;5064858;28;20434;-73
2022/09/10 05:29:06;;;;;;;1.23;0.85;;;14.30;99.90;;;;;;5065299;28;20041;-73
2022/09/10 05:31:32;;;;;;;0.77;0.70;;;14.30;99.90;;;;;;5064443;28;20376;-74
2022/09/10 05:34:00;;;;;;;4.53;1.45;;;14.30;99.90;;;;;;5064664;28;20101;-74
2022/09/10 05:36:26;;;;;;;1.58;1.08;;;14.30;99.90;;;;;;5047143;28;20041;-74
2022/09/10 05:38:53;;;;;;;1.13;1.05;;;14.40;99.90;;;;;;5064491;28;20033;-73
2022/09/10 05:41:20;;;;;;;0.68;0.60;;;14.40;99.90;;;;;;5065652;28;20048;-74
2022/09/10 05:43:46;;;;;;;1.38;1.17;;;14.40;99.90;;;;;;5048253;28;20049;-73
2022/09/10 05:46:12;;;;;;;1.98;1.55;;;14.40;99.90;;;;;;5065806;28;20094;-73
2022/09/10 05:48:39;;;;;;;2.50;1.33;;;14.40;99.90;;;;;;5065759;28;20041;-73
2022/09/10 05:51:04;;;;;;;3.08;1.10;;;14.50;99.90;;;;;;5066140;28;20124;-73
2022/09/10 05:53:30;;;;;;;1.88;1.55;;;14.50;99.90;;;;;;5066855;28;20099;-73
2022/09/10 05:55:55;;;;;;;1.73;1.35;;;14.50;99.90;;;;;;5049247;28;20049;-73
2022/09/10 05:58:21;;;;;;;3.78;1.25;;;14.60;99.90;;;;;;5047852;28;20517;-74
2022/09/10 06:00:56;;;;;;;1.33;1.05;;;14.60;99.90;;;;;;5066028;28;20406;-73
2022/09/10 06:03:23;;;;;;;1.70;1.33;;;14.60;99.90;;;;;;5065690;28;20041;-73
2022/09/10 06:05:52;;;;;;;4.43;2.70;;;14.60;99.90;;;;;;5066363;28;20121;-73
2022/09/10 06:08:21;;;;;;;10.43;2.35;;;14.60;99.90;;;;;;5066257;28;20041;-74
2022/09/10 06:11:13;;;;;;;1.23;1.13;;;14.60;99.90;;;;;;5066754;28;20128;-74
2022/09/10 06:13:41;;;;;;;2.00;1.40;;;14.70;99.90;;;;;;5060658;28;20112;-74
2022/09/10 06:16:06;;;;;;;1.95;1.10;;;14.60;99.90;;;;;;5063738;28;20052;-73
2022/09/10 06:18:32;;;;;;;1.88;1.60;;;14.60;99.90;;;;;;5063466;28;20044;-73
2022/09/10 06:21:07;;;;;;;2.10;1.40;;;14.70;99.90;;;;;;5063374;28;20070;-74
2022/09/10 06:23:34;;;;;;;2.03;1.40;;;14.60;99.90;;;;;;5063922;28;20068;-73
2022/09/10 06:26:07;;;;;;;2.30;2.08;;;14.70;99.90;;;;;;5064452;28;20037;-74
2022/09/10 06:28:33;;;;;;;2.65;2.05;;;14.70;99.90;;;;;;5065966;28;20071;-73
2022/09/10 06:30:59;;;;;;;2.97;2.05;;;14.70;99.90;;;;;;5066142;28;20100;-73
2022/09/10 06:33:25;;;;;;;1.15;0.95;;;14.60;99.90;;;;;;5064881;28;20044;-73
2022/09/10 06:35:54;;;;;;;0.98;0.85;;;14.60;99.90;;;;;;5066262;28;20120;-73
2022/09/10 06:38:20;;;;;;;4.03;1.67;;;14.70;99.90;;;;;;5066300;28;20080;-73
2022/09/10 06:40:58;;;;;;;1.50;1.35;;;14.70;99.90;;;;;;5067191;28;20479;-74
2022/09/10 06:43:25;;;;;;;4.38;1.95;;;14.70;99.90;;;;;;5066658;28;20041;-73
2022/09/10 06:45:52;;;;;;;0.73;0.60;;;14.80;99.90;;;;;;5067086;28;20510;-73
2022/09/10 06:48:18;;;;;;;2.47;1.85;;;14.80;99.90;;;;;;5066222;28;20041;-73
2022/09/10 06:50:57;;;;;;;1.80;1.60;;;14.80;99.90;;;;;;5066879;28;20037;-73
2022/09/10 06:53:26;;;;;;;3.70;1.90;;;14.80;99.90;;;;;;5065119;28;20049;-73
2022/09/10 06:55:52;;;;;;;1.65;1.52;;;14.80;99.90;;;;;;5066316;28;20049;-74
2022/09/10 06:58:19;;;;;;;2.10;1.83;;;15.00;99.90;;;;;;5066872;28;20045;-74
2022/09/10 07:00:49;;;;;;;1.52;1.42;;;14.90;99.90;;;;;;5067719;28;20481;-73
2022/09/10 07:03:16;;;;;;;2.38;2.05;;;14.90;99.90;;;;;;5067654;28;20084;-73
2022/09/10 07:05:44;;;;;;;2.65;1.52;;;14.90;99.90;;;;;;5067122;28;20132;-73
2022/09/10 07:08:14;;;;;;;1.90;1.70;;;15.00;99.90;;;;;;5065637;28;20045;-73
2022/09/10 07:10:43;;;;;;;4.88;2.65;;;15.00;99.90;;;;;;5068465;28;20175;-74
2022/09/10 07:13:09;;;;;;;5.38;2.40;;;15.00;99.90;;;;;;5067353;28;20104;-73
2022/09/10 07:15:35;;;;;;;1.50;1.20;;;15.00;99.90;;;;;;5066127;28;20048;-75
2022/09/10 07:18:01;;;;;;;1.67;1.42;;;15.00;99.90;;;;;;5067193;28;20045;-74
2022/09/10 07:20:28;;;;;;;1.35;1.25;;;15.00;99.90;;;;;;5067287;28;20072;-73
2022/09/10 07:22:58;;;;;;;2.80;1.65;;;15.00;99.90;;;;;;5065968;28;20056;-74
2022/09/10 07:25:25;;;;;;;2.88;1.98;;;15.00;99.90;;;;;;5065342;28;20041;-73
2022/09/10 07:27:51;;;;;;;1.58;1.48;;;15.10;99.90;;;;;;5065957;28;20052;-74
2022/09/10 07:30:17;;;;;;;0.95;0.90;;;15.10;99.90;;;;;;5065656;28;20041;-73
2022/09/10 07:32:44;;;;;;;5.78;3.88;;;15.10;99.90;;;;;;5065600;28;20045;-73
2022/09/10 07:35:10;;;;;;;3.42;2.10;;;15.10;99.90;;;;;;5065565;28;20068;-73
2022/09/10 07:37:37;;;;;;;4.43;2.28;;;15.20;99.90;;;;;;5066504;28;20107;-73
2022/09/10 07:40:04;;;;;;;3.15;1.40;;;15.20;99.90;;;;;;5065983;28;20045;-73
2022/09/10 07:42:29;;;;;;;1.35;1.25;;;15.20;99.90;;;;;;5066445;28;20056;-74
2022/09/10 07:44:55;;;;;;;2.03;1.23;;;15.20;99.90;;;;;;5065845;28;20044;-73
2022/09/10 07:47:20;;;;;;;2.75;1.52;;;16.20;99.90;;;;;;5066689;28;20064;-73
2022/09/10 07:49:46;;;;;;;2.83;1.05;;;15.30;99.90;;;;;;5066672;28;20041;-74
2022/09/10 07:52:12;;;;;;;0.95;0.88;;;15.40;99.90;;;;;;5066344;28;20045;-74
2022/09/10 07:54:38;;;;;;;1.52;1.42;;;15.50;99.90;;;;;;5067317;28;20072;-74
2022/09/10 07:57:04;;;;;;;2.85;1.67;;;15.50;99.90;;;;;;5066328;28;20045;-74
2022/09/10 07:59:30;;;;;;;1.85;1.67;;;15.70;99.90;;;;;;5067138;28;20045;-74
2022/09/10 08:01:58;;;;;;;1.42;1.33;;;15.80;99.90;;;;;;5067629;28;20040;-74
2022/09/10 08:04:24;;;;;;;2.90;1.88;;;16.00;99.90;;;;;;5066436;28;20395;-73
2022/09/10 08:06:50;;;;;;;4.20;2.75;;;16.00;99.90;;;;;;5066848;28;20106;-74
2022/09/10 08:09:18;;;;;;;4.53;1.80;;;16.00;99.90;;;;;;5067839;28;20394;-74
2022/09/10 08:11:44;;;;;;;1.83;1.38;;;16.00;99.90;;;;;;5067426;28;20044;-74
2022/09/10 08:14:12;;;;;;;2.78;1.58;;;16.00;99.90;;;;;;5064575;28;20064;-74
2022/09/10 08:16:37;;;;;;;1.13;1.05;;;16.00;99.90;;;;;;5066176;28;20064;-73
2022/09/10 08:19:04;;;;;;;3.08;1.90;;;16.00;99.90;;;;;;5066386;28;20044;-74
2022/09/10 08:21:30;;;;;;;3.13;1.23;;;16.10;99.90;;;;;;5067309;28;20040;-74
2022/09/10 08:23:56;;;;;;;4.70;2.42;;;16.10;99.90;;;;;;5068550;28;20098;-75
2022/09/10 08:26:23;;;;;;;3.70;2.78;;;16.10;99.90;;;;;;5068850;28;20070;-74
2022/09/10 08:28:57;;;;;;;2.55;1.80;;;16.20;99.90;;;;;;5050932;28;20045;-74
2022/09/10 08:31:25;;;;;;;3.88;2.55;;;16.40;99.90;;;;;;5067561;28;20045;-74
2022/09/10 08:33:52;;;;;;;3.20;2.50;;;16.60;99.90;;;;;;5068186;28;20057;-74
2022/09/10 08:36:20;;;;;;;1.45;1.35;;;16.80;99.90;;;;;;5067653;28;20072;-74
2022/09/10 08:38:47;;;;;;;1.45;1.13;;;16.90;99.90;;;;;;5066828;28;20045;-73
2022/09/10 08:41:51;;;;;;;7.00;3.40;;;16.90;99.90;;;;;;5067955;28;20105;-74
2022/09/10 08:44:47;;;;;;;2.67;1.95;;;16.90;99.90;;;;;;5068142;28;20076;-74
2022/09/10 08:47:50;;;;;;;2.60;1.80;;;16.90;99.90;;;;;;5068927;28;20037;-74
2022/09/10 08:50:42;;;;;;;2.72;2.40;;;16.80;99.90;;;;;;5068545;28;20078;-74
2022/09/10 08:53:21;;;;;;;2.33;1.95;;;16.90;99.90;;;;;;5066103;28;20049;-74
2022/09/10 08:55:49;;;;;;;7.55;3.22;;;17.20;99.90;;;;;;5070181;28;20040;-74
2022/09/10 08:58:24;;;;;;;4.47;2.30;;;17.30;99.90;;;;;;5069484;28;20061;-74
2022/09/10 09:00:57;;;;;;;7.95;3.28;;;17.60;99.90;;;;;;5069033;28;20155;-74
2022/09/10 09:03:40;;;;;;;4.20;1.90;;;17.50;99.90;;;;;;5069888;28;20037;-74
2022/09/10 09:06:32;;;;;;;3.25;1.85;;;17.40;99.90;;;;;;5069451;28;20040;-73
2022/09/10 09:09:00;;;;;;;3.95;2.30;;;17.40;99.90;;;;;;5056639;28;20078;-74
2022/09/10 09:11:26;;;;;;;3.00;2.60;;;17.50;99.90;;;;;;5071326;28;20056;-74
2022/09/10 09:14:02;;;;;;;2.92;1.70;;;17.40;99.90;;;;;;5069578;28;20105;-74
2022/09/10 09:16:46;;;;;;;2.55;1.50;;;17.50;99.90;;;;;;5069961;28;20056;-74
2022/09/10 09:19:22;;;;;;;2.95;2.55;;;17.60;99.90;;;;;;5069293;28;20072;-75
2022/09/10 09:21:51;;;;;;;;;;;17.70;99.90;;;;;;5072693;28;20037;-74
2022/09/10 09:24:49;;;;;;;5.25;2.97;;;17.90;99.90;;;;;;5072641;28;19921;-74
2022/09/10 09:27:17;;;;;;;1.83;1.35;;;18.10;99.90;;;;;;5030297;28;20118;-74
2022/09/10 09:29:58;;;;;;;2.85;1.67;;;18.30;99.90;;;;;;5072565;28;20092;-74
2022/09/10 09:32:25;;;;;;;1.23;1.10;;;18.60;99.90;;;;;;5070688;28;20102;-74
2022/09/10 09:35:15;;;;;;;1.20;0.88;;;18.80;99.90;;;;;;5070295;28;20052;-74
2022/09/10 09:37:46;;;;;;;4.85;1.40;;;19.00;99.90;;;;;;5068259;28;20060;-74
2022/09/10 09:40:15;;;;;;;2.22;1.58;;;19.50;99.90;;;;;;5071017;28;20045;-74
2022/09/10 09:43:03;;;;;;;1.08;0.30;;;19.50;99.90;;;;;;5067868;28;20045;-74
2022/09/10 09:45:36;;;;;;;3.75;2.10;;;19.90;99.90;;;;;;5068545;28;20048;-74
2022/09/10 09:48:10;;;;;;;3.35;1.88;;;20.30;99.90;;;;;;5070139;28;20076;-75
2022/09/10 09:50:40;;;;;;;0.20;0.20;;;20.30;99.90;;;;;;5071042;28;20048;-74
2022/09/10 09:53:06;;;;;;;3.45;1.67;;;20.60;99.90;;;;;;5068232;28;20055;-74
2022/09/10 09:55:37;;;;;;;1.35;1.25;;;20.40;99.90;;;;;;5068780;28;20049;-74
2022/09/10 09:58:22;;;;;;;1.27;0.85;;;20.10;99.90;;;;;;5051239;28;20095;-73
2022/09/10 10:00:52;;;;;;;1.83;1.42;;;20.20;99.90;;;;;;5069817;28;20049;-74
2022/09/10 10:03:25;;;;;;;2.30;1.20;;;19.80;99.90;;;;;;5070617;28;20044;-74
2022/09/10 10:06:00;;;;;;;1.60;1.10;;;19.40;99.90;;;;;;5068758;28;20041;-73
2022/09/10 10:08:33;;;;;;;0.40;0.38;;;19.50;99.90;;;;;;5068551;28;20047;-74
2022/09/10 10:10:59;;;;;;;2.88;2.33;;;19.60;99.90;;;;;;5054063;28;20110;-74
2022/09/10 10:13:37;;;;;;;0.77;0.55;;;19.40;99.90;;;;;;5068464;28;20048;-74
2022/09/10 10:16:32;;;;;;;2.17;1.33;;;19.20;99.90;;;;;;5066410;28;20037;-74
2022/09/10 10:18:58;;;;;;;2.70;1.80;;;19.10;99.90;;;;;;5063861;28;20080;-74
2022/09/10 10:21:35;;;;;;;2.47;0.70;;;18.90;99.90;;;;;;5065187;28;20075;-74
2022/09/10 10:24:02;;;;;;;1.83;1.40;;;18.90;99.90;;;;;;5065778;28;20126;-74
2022/09/10 10:26:33;;;;;;;8.48;1.45;;;18.90;99.90;;;;;;5065128;28;20045;-74
2022/09/10 10:29:05;;;;;;;1.88;1.33;;;19.00;99.90;;;;;;5061919;28;20049;-73
2022/09/10 10:31:43;;;;;;;0.93;0.85;;;19.00;99.90;;;;;;5065198;28;20120;-74
2022/09/10 10:34:08;;;;;;;0.80;0.77;;;19.20;99.90;;;;;;5065921;28;20049;-74
2022/09/10 10:36:37;;;;;;;0.95;0.80;;;19.40;99.90;;;;;;5064910;28;20597;-73
2022/09/10 10:39:07;;;;;;;1.20;0.70;;;19.50;99.90;;;;;;5065466;28;20488;-74
2022/09/10 10:41:57;;;;;;;0.22;0.22;;;19.70;99.90;;;;;;5066068;28;20067;-74
2022/09/10 10:45:01;;;;;;;3.17;1.08;;;19.90;99.90;;;;;;5059629;28;20056;-74
2022/09/10 10:47:44;;;;;;;0.85;0.65;;;20.00;99.90;;;;;;5022719;28;20052;-74
2022/09/10 10:50:22;;;;;;;3.25;2.28;;;20.10;99.90;;;;;;5059746;28;20053;-74
2022/09/10 10:53:20;;;;;;;0.43;0.38;;;20.10;99.90;;;;;;5059519;28;20411;-74
2022/09/10 10:56:01;;;;;;;1.52;1.20;;;20.40;99.90;;;;;;5060989;28;20049;-73
2022/09/10 10:58:36;;;;;;;1.38;1.10;;;20.20;99.90;;;;;;5059558;28;20531;-73
2022/09/10 11:01:22;;;;;;;2.08;1.02;;;20.20;99.90;;;;;;5059470;28;20037;-74
2022/09/10 11:04:13;;;;;;;1.38;0.77;;;20.40;99.90;;;;;;5058957;28;20049;-74
2022/09/10 11:06:44;;;;;;;1.17;1.08;;;20.60;99.90;;;;;;5058471;28;20495;-74
2022/09/10 11:09:22;;;;;;;0.88;0.65;;;20.70;99.90;;;;;;5060399;28;20395;-73
2022/09/10 11:11:56;;;;;;;1.00;0.90;;;20.90;99.90;;;;;;5058466;28;20075;-74
2022/09/10 11:14:28;;;;;;;0.85;0.45;;;21.00;99.90;;;;;;5059419;28;20055;-74
2022/09/10 11:17:02;;;;;;;2.33;0.93;;;21.20;99.90;;;;;;5063277;28;20052;-74
2022/09/10 11:19:35;;;;;;;2.08;1.60;;;21.20;99.90;;;;;;5061438;28;20053;-74
2022/09/10 11:22:12;;;;;;;2.33;1.70;;;21.30;99.90;;;;;;5058690;28;20069;-74
2022/09/10 11:24:53;;;;;;;4.63;1.23;;;21.50;99.90;;;;;;5058402;28;20053;-74
2022/09/10 11:27:37;;;;;;;1.70;1.00;;;21.50;99.90;;;;;;5057408;28;20102;-73
2022/09/10 11:30:16;;;;;;;0.75;0.75;;;21.70;99.90;;;;;;5058909;28;20052;-74
2022/09/10 11:33:00;;;;;;;1.88;1.10;;;21.70;99.90;;;;;;5059952;28;20048;-75
2022/09/10 11:35:33;;;;;;;2.10;1.00;;;22.00;99.90;;;;;;5058520;28;20112;-72
2022/09/10 11:38:30;;;;;;;1.17;0.98;;;22.20;99.90;;;;;;5058803;28;20116;-71
2022/09/10 11:41:14;;;;;;;1.25;1.10;;;22.30;99.90;;;;;;5045617;28;20041;-71
2022/09/10 11:43:58;;;;;;;2.85;1.10;;;22.10;99.90;;;;;;5058396;28;20053;-71
2022/09/10 11:46:36;;;;;;;0.75;0.60;;;22.50;99.90;;;;;;5062113;28;20056;-72
2022/09/10 11:49:12;;;;;;;0.73;0.57;;;22.90;99.90;;;;;;5059115;28;20056;-71
2022/09/10 11:51:40;;;;;;;0.43;0.35;;;23.10;99.90;;;;;;5060688;28;20053;-71
2022/09/10 11:54:13;;;;;;;5.75;2.13;;;22.90;99.90;;;;;;5068279;28;20049;-71
2022/09/10 11:57:00;;;;;;;2.92;1.48;;;22.70;99.90;;;;;;5032135;28;1023980;-72
2022/09/10 11:59:46;;;;;;;0.90;0.80;;;22.00;99.90;;;;;;5069633;28;20116;-72
2022/09/10 12:02:49;;;;;;;1.20;1.10;;;21.70;99.90;;;;;;5066586;28;20088;-73
2022/09/10 12:05:24;;;;;;;1.48;1.08;;;21.40;99.90;;;;;;5064816;28;20055;-72
2022/09/10 12:08:21;;;;;;;3.55;1.30;;;21.70;99.90;;;;;;5066748;28;20095;-71
2022/09/10 12:11:17;;;;;;;2.30;1.60;;;22.10;99.90;;;;;;5064977;28;20458;-72
2022/09/10 12:13:45;;;;;;;0.70;0.70;;;22.10;99.90;;;;;;5065691;28;20037;-71
2022/09/10 12:16:24;;;;;;;7.22;0.95;;;22.30;99.90;;;;;;5063377;28;20037;-71
2022/09/10 12:18:52;;;;;;;1.63;1.15;;;22.70;99.90;;;;;;5066965;28;20120;-72
2022/09/10 12:21:35;;;;;;;3.75;1.50;;;22.50;99.90;;;;;;5069953;28;20045;-71
2022/09/10 12:24:06;;;;;;;1.15;0.63;;;22.00;99.90;;;;;;5068817;28;20419;-71
2022/09/10 12:26:41;;;;;;;1.85;0.80;;;22.70;99.90;;;;;;5069547;28;20040;-72
2022/09/10 12:29:34;;;;;;;0.90;0.73;;;22.60;99.90;;;;;;5069412;28;20045;-72
2022/09/10 12:32:17;;;;;;;0.40;0.40;;;22.80;99.90;;;;;;5067458;28;20061;-72
2022/09/10 12:34:47;;;;;;;1.30;0.82;;;22.80;99.90;;;;;;5066238;28;20052;-72
2022/09/10 12:37:26;;;;;;;1.38;1.27;;;23.50;99.90;;;;;;5067145;28;20056;-71
2022/09/10 12:40:23;;;;;;;2.50;0.95;;;23.20;99.90;;;;;;5064954;28;20049;-72
2022/09/10 12:42:49;;;;;;;0.82;0.75;;;23.10;99.90;;;;;;5061161;28;20049;-71
2022/09/10 12:45:59;;;;;;;0.50;0.47;;;23.00;99.90;;;;;;5063976;28;20052;-72
2022/09/10 12:48:25;;;;;;;3.08;1.50;;;22.90;99.90;;;;;;5065312;28;20045;-72
2022/09/10 12:50:59;;;;;;;9.40;1.85;;;22.20;99.90;;;;;;5061637;28;20056;-71
2022/09/10 12:53:47;;;;;;;1.52;0.93;;;22.00;99.90;;;;;;5068874;28;20096;-71
2022/09/10 12:56:39;;;;;;;0.68;0.45;;;21.90;99.90;;;;;;5069419;28;20097;-71
2022/09/10 12:59:34;;;;;;;1.02;0.80;;;21.70;99.90;;;;;;5026343;28;20049;-71
2022/09/10 13:02:00;;;;;;;0.68;0.63;;;21.60;99.90;;;;;;5028678;28;20149;-71
2022/09/10 13:04:29;;;;;;;2.70;1.20;;;21.50;99.90;;;;;;5028384;28;20050;-71
2022/09/10 13:07:18;;;;;;;1.70;1.33;;;21.40;99.90;;;;;;5029013;28;20065;-72
2022/09/10 13:09:45;;;;;;;1.27;0.77;;;21.90;99.90;;;;;;5024658;28;20527;-72
2022/09/10 13:12:19;;;;;;;0.70;0.60;;;22.50;99.90;;;;;;5024255;28;20045;-71
2022/09/10 13:14:49;;;;;;;1.73;0.82;;;23.00;99.90;;;;;;5026546;28;20047;-71